sensor_id;sensor_type;location;lat;lon;timestamp;temperature;humidity
5461;DHT22;2753;49.196;8.286;2022-12-18T00:13:53;-6.10;99.90
5461;DHT22;2753;49.196;8.286;2022-12-18T00:21:31;-6.10;99.90
5461;DHT22;2753;49.196;8.286;2022-12-18T00:29:11;-6.20;99.90
5461;DHT22;2753;49.196;8.286;2022-12-18T00:34:14;-6.20;99.90
5461;DHT22;2753;49.196;8.286;2022-12-18T00:46:53;-6.20;99.90
5461;DHT22;2753;49.196;8.286;2022-12-18T00:49:20;-6.20;99.90
5461;DHT22;2753;49.196;8.286;2022-12-18T00:51:45;-6.20;99.90
5461;DHT22;2753;49.196;8.286;2022-12-18T00:54:11;-6.20;99.90
5461;DHT22;2753;49.196;8.286;2022-12-18T00:56:38;-6.20;99.90
5461;DHT22;2753;49.196;8.286;2022-12-18T00:59:04;-6.20;99.90
5461;DHT22;2753;49.196;8.286;2022-12-18T01:01:30;-6.20;99.90
5461;DHT22;2753;49.196;8.286;2022-12-18T01:03:55;-6.20;99.90
5461;DHT22;2753;49.196;8.286;2022-12-18T01:06:22;-6.20;99.90
5461;DHT22;2753;49.196;8.286;2022-12-18T01:08:47;-6.30;99.90
5461;DHT22;2753;49.196;8.286;2022-12-18T01:11:16;-6.30;99.90
5461;DHT22;2753;49.196;8.286;2022-12-18T01:13:43;-6.30;99.90
5461;DHT22;2753;49.196;8.286;2022-12-18T01:16:11;-6.30;99.90
5461;DHT22;2753;49.196;8.286;2022-12-18T01:18:36;-6.20;99.90
5461;DHT22;2753;49.196;8.286;2022-12-18T01:21:09;-6.20;99.90
5461;DHT22;2753;49.196;8.286;2022-12-18T01:23:35;-6.20;99.90
5461;DHT22;2753;49.196;8.286;2022-12-18T01:26:12;-6.20;99.90
5461;DHT22;2753;49.196;8.286;2022-12-18T01:28:39;-6.30;99.90
5461;DHT22;2753;49.196;8.286;2022-12-18T01:31:18;-6.30;99.90
5461;DHT22;2753;49.196;8.286;2022-12-18T01:33:45;-6.20;99.90
5461;DHT22;2753;49.196;8.286;2022-12-18T01:36:35;-6.30;99.90
5461;DHT22;2753;49.196;8.286;2022-12-18T01:39:04;-6.20;99.90
5461;DHT22;2753;49.196;8.286;2022-12-18T01:41:31;-6.30;99.90
5461;DHT22;2753;49.196;8.286;2022-12-18T01:47:27;-6.30;99.90
5461;DHT22;2753;49.196;8.286;2022-12-18T01:49:55;-6.30;99.90
5461;DHT22;2753;49.196;8.286;2022-12-18T01:52:24;-6.30;99.90
5461;DHT22;2753;49.196;8.286;2022-12-18T01:54:51;-6.30;99.90
5461;DHT22;2753;49.196;8.286;2022-12-18T01:57:17;-6.20;99.90
5461;DHT22;2753;49.196;8.286;2022-12-18T01:59:45;-6.20;99.90
5461;DHT22;2753;49.196;8.286;2022-12-18T02:02:14;-6.20;99.90
5461;DHT22;2753;49.196;8.286;2022-12-18T02:04:41;-6.20;99.90
5461;DHT22;2753;49.196;8.286;2022-12-18T02:09:57;-6.20;99.90
5461;DHT22;2753;49.196;8.286;2022-12-18T02:12:28;-6.20;99.90
5461;DHT22;2753;49.196;8.286;2022-12-18T02:15:10;-6.20;99.90
5461;DHT22;2753;49.196;8.286;2022-12-18T02:17:39;-6.20;99.90
5461;DHT22;2753;49.196;8.286;2022-12-18T02:20:13;-6.20;99.90
5461;DHT22;2753;49.196;8.286;2022-12-18T02:28:00;-6.20;99.90
5461;DHT22;2753;49.196;8.286;2022-12-18T02:30:29;-6.30;99.90
5461;DHT22;2753;49.196;8.286;2022-12-18T02:32:57;-6.30;99.90
5461;DHT22;2753;49.196;8.286;2022-12-18T02:35:28;-6.20;99.90
5461;DHT22;2753;49.196;8.286;2022-12-18T02:37:55;-6.20;99.90
5461;DHT22;2753;49.196;8.286;2022-12-18T02:40:24;-6.30;99.90
5461;DHT22;2753;49.196;8.286;2022-12-18T02:42:50;-6.20;99.90
5461;DHT22;2753;49.196;8.286;2022-12-18T02:45:16;-6.30;99.90
5461;DHT22;2753;49.196;8.286;2022-12-18T02:47:43;-6.20;99.90
5461;DHT22;2753;49.196;8.286;2022-12-18T02:50:26;-6.30;99.90
5461;DHT22;2753;49.196;8.286;2022-12-18T03:03:55;-6.30;99.90
5461;DHT22;2753;49.196;8.286;2022-12-18T03:06:37;-6.30;99.90
5461;DHT22;2753;49.196;8.286;2022-12-18T03:09:11;-6.30;99.90
5461;DHT22;2753;49.196;8.286;2022-12-18T03:11:41;-6.30;99.90
5461;DHT22;2753;49.196;8.286;2022-12-18T03:14:30;-6.30;99.90
5461;DHT22;2753;49.196;8.286;2022-12-18T03:17:00;-6.30;99.90
5461;DHT22;2753;49.196;8.286;2022-12-18T03:19:28;-6.30;99.90
5461;DHT22;2753;49.196;8.286;2022-12-18T03:22:00;-6.30;99.90
5461;DHT22;2753;49.196;8.286;2022-12-18T03:24:30;-6.40;99.90
5461;DHT22;2753;49.196;8.286;2022-12-18T03:27:06;-6.40;99.90
5461;DHT22;2753;49.196;8.286;2022-12-18T03:29:46;-6.40;99.90
5461;DHT22;2753;49.196;8.286;2022-12-18T03:32:30;-6.40;99.90
5461;DHT22;2753;49.196;8.286;2022-12-18T03:35:01;-6.40;99.90
5461;DHT22;2753;49.196;8.286;2022-12-18T03:37:28;-6.40;99.90
5461;DHT22;2753;49.196;8.286;2022-12-18T03:39:55;-6.40;99.90
5461;DHT22;2753;49.196;8.286;2022-12-18T03:48:08;-6.50;99.90
5461;DHT22;2753;49.196;8.286;2022-12-18T03:50:46;-6.50;99.90
5461;DHT22;2753;49.196;8.286;2022-12-18T03:55:59;-6.50;99.90
5461;DHT22;2753;49.196;8.286;2022-12-18T03:58:26;-6.50;99.90
5461;DHT22;2753;49.196;8.286;2022-12-18T04:00:56;-6.50;99.90
5461;DHT22;2753;49.196;8.286;2022-12-18T04:03:23;-6.50;99.90
5461;DHT22;2753;49.196;8.286;2022-12-18T04:05:50;-6.60;99.90
5461;DHT22;2753;49.196;8.286;2022-12-18T04:08:18;-6.60;99.90
5461;DHT22;2753;49.196;8.286;2022-12-18T04:10:45;-6.60;99.90
5461;DHT22;2753;49.196;8.286;2022-12-18T04:13:11;-6.60;99.90
5461;DHT22;2753;49.196;8.286;2022-12-18T04:15:37;-6.60;99.90
5461;DHT22;2753;49.196;8.286;2022-12-18T04:18:03;-6.60;99.90
5461;DHT22;2753;49.196;8.286;2022-12-18T04:20:29;-6.60;99.90
5461;DHT22;2753;49.196;8.286;2022-12-18T04:22:55;-6.60;99.90
5461;DHT22;2753;49.196;8.286;2022-12-18T04:25:21;-6.60;99.90
5461;DHT22;2753;49.196;8.286;2022-12-18T04:27:46;-6.60;99.90
5461;DHT22;2753;49.196;8.286;2022-12-18T04:30:12;-6.60;99.90
5461;DHT22;2753;49.196;8.286;2022-12-18T04:32:38;-6.60;99.90
5461;DHT22;2753;49.196;8.286;2022-12-18T04:35:04;-6.60;99.90
5461;DHT22;2753;49.196;8.286;2022-12-18T04:37:32;-6.60;99.90
5461;DHT22;2753;49.196;8.286;2022-12-18T04:39:57;-6.60;99.90
5461;DHT22;2753;49.196;8.286;2022-12-18T04:42:23;-6.70;99.90
5461;DHT22;2753;49.196;8.286;2022-12-18T04:44:49;-6.70;99.90
5461;DHT22;2753;49.196;8.286;2022-12-18T04:47:14;-6.70;99.90
5461;DHT22;2753;49.196;8.286;2022-12-18T04:49:40;-6.70;99.90
5461;DHT22;2753;49.196;8.286;2022-12-18T04:52:07;-6.70;99.90
5461;DHT22;2753;49.196;8.286;2022-12-18T04:54:32;-6.70;99.90
5461;DHT22;2753;49.196;8.286;2022-12-18T04:56:58;-6.70;99.90
5461;DHT22;2753;49.196;8.286;2022-12-18T04:59:24;-6.70;99.90
5461;DHT22;2753;49.196;8.286;2022-12-18T05:01:50;-6.70;99.90
5461;DHT22;2753;49.196;8.286;2022-12-18T05:04:15;-6.80;99.90
5461;DHT22;2753;49.196;8.286;2022-12-18T05:06:41;-6.80;99.90
5461;DHT22;2753;49.196;8.286;2022-12-18T05:09:07;-6.80;99.90
5461;DHT22;2753;49.196;8.286;2022-12-18T05:11:33;-6.80;99.90
5461;DHT22;2753;49.196;8.286;2022-12-18T05:13:59;-6.80;99.90
5461;DHT22;2753;49.196;8.286;2022-12-18T05:16:24;-6.80;99.90
5461;DHT22;2753;49.196;8.286;2022-12-18T05:18:50;-6.80;99.90
5461;DHT22;2753;49.196;8.286;2022-12-18T05:21:16;-6.80;99.90
5461;DHT22;2753;49.196;8.286;2022-12-18T05:23:41;-6.90;99.90
5461;DHT22;2753;49.196;8.286;2022-12-18T05:26:07;-6.80;99.90
5461;DHT22;2753;49.196;8.286;2022-12-18T05:28:35;-6.90;99.90
5461;DHT22;2753;49.196;8.286;2022-12-18T05:31:04;-6.90;99.90
5461;DHT22;2753;49.196;8.286;2022-12-18T05:33:32;-6.90;99.90
5461;DHT22;2753;49.196;8.286;2022-12-18T05:36:00;-6.90;99.90
5461;DHT22;2753;49.196;8.286;2022-12-18T05:38:27;-6.90;99.90
5461;DHT22;2753;49.196;8.286;2022-12-18T05:40:53;-6.90;99.90
5461;DHT22;2753;49.196;8.286;2022-12-18T05:43:20;-7.00;99.90
5461;DHT22;2753;49.196;8.286;2022-12-18T05:45:47;-6.90;99.90
5461;DHT22;2753;49.196;8.286;2022-12-18T05:48:13;-6.90;99.90
5461;DHT22;2753;49.196;8.286;2022-12-18T05:50:41;-7.00;99.90
5461;DHT22;2753;49.196;8.286;2022-12-18T05:53:07;-7.00;99.90
5461;DHT22;2753;49.196;8.286;2022-12-18T05:55:35;-7.00;99.90
5461;DHT22;2753;49.196;8.286;2022-12-18T05:58:02;-7.00;99.90
5461;DHT22;2753;49.196;8.286;2022-12-18T06:00:28;-7.00;99.90
5461;DHT22;2753;49.196;8.286;2022-12-18T06:02:54;-7.10;99.90
5461;DHT22;2753;49.196;8.286;2022-12-18T06:05:19;-7.10;99.90
5461;DHT22;2753;49.196;8.286;2022-12-18T06:07:45;-7.10;99.90
5461;DHT22;2753;49.196;8.286;2022-12-18T06:10:11;-7.10;99.90
5461;DHT22;2753;49.196;8.286;2022-12-18T06:12:37;-7.10;99.90
5461;DHT22;2753;49.196;8.286;2022-12-18T06:15:03;-7.10;99.90
5461;DHT22;2753;49.196;8.286;2022-12-18T06:17:33;-7.10;99.90
5461;DHT22;2753;49.196;8.286;2022-12-18T06:19:59;-7.10;99.90
5461;DHT22;2753;49.196;8.286;2022-12-18T06:22:25;-7.10;99.90
5461;DHT22;2753;49.196;8.286;2022-12-18T06:24:51;-7.20;99.90
5461;DHT22;2753;49.196;8.286;2022-12-18T06:27:17;-7.20;99.90
5461;DHT22;2753;49.196;8.286;2022-12-18T06:29:43;-7.10;99.90
5461;DHT22;2753;49.196;8.286;2022-12-18T06:32:08;-7.20;99.90
5461;DHT22;2753;49.196;8.286;2022-12-18T06:34:37;-7.20;99.90
5461;DHT22;2753;49.196;8.286;2022-12-18T06:37:03;-7.20;99.90
5461;DHT22;2753;49.196;8.286;2022-12-18T06:39:28;-7.20;99.90
5461;DHT22;2753;49.196;8.286;2022-12-18T06:41:54;-7.20;99.90
5461;DHT22;2753;49.196;8.286;2022-12-18T06:44:20;-7.30;99.90
5461;DHT22;2753;49.196;8.286;2022-12-18T06:46:45;-7.20;99.90
5461;DHT22;2753;49.196;8.286;2022-12-18T06:49:11;-7.20;99.90
5461;DHT22;2753;49.196;8.286;2022-12-18T06:51:37;-7.30;99.90
5461;DHT22;2753;49.196;8.286;2022-12-18T06:54:03;-7.30;99.90
5461;DHT22;2753;49.196;8.286;2022-12-18T06:56:29;-7.30;99.90
5461;DHT22;2753;49.196;8.286;2022-12-18T06:58:55;-7.30;99.90
5461;DHT22;2753;49.196;8.286;2022-12-18T07:01:21;-7.30;99.90
5461;DHT22;2753;49.196;8.286;2022-12-18T07:03:51;-7.30;99.90
5461;DHT22;2753;49.196;8.286;2022-12-18T07:06:21;-7.30;99.90
5461;DHT22;2753;49.196;8.286;2022-12-18T07:08:48;-7.40;99.90
5461;DHT22;2753;49.196;8.286;2022-12-18T07:11:15;-7.40;99.90
5461;DHT22;2753;49.196;8.286;2022-12-18T07:13:41;-7.40;99.90
5461;DHT22;2753;49.196;8.286;2022-12-18T07:18:33;-7.40;99.90
5461;DHT22;2753;49.196;8.286;2022-12-18T07:21:05;-7.40;99.90
5461;DHT22;2753;49.196;8.286;2022-12-18T07:23:33;-7.40;99.90
5461;DHT22;2753;49.196;8.286;2022-12-18T07:26:04;-7.40;99.90
5461;DHT22;2753;49.196;8.286;2022-12-18T07:28:31;-7.40;99.90
5461;DHT22;2753;49.196;8.286;2022-12-18T07:30:58;-7.40;99.90
5461;DHT22;2753;49.196;8.286;2022-12-18T07:33:25;-7.40;99.90
5461;DHT22;2753;49.196;8.286;2022-12-18T07:35:51;-7.40;99.90
5461;DHT22;2753;49.196;8.286;2022-12-18T07:38:17;-7.40;99.90
5461;DHT22;2753;49.196;8.286;2022-12-18T07:40:43;-7.40;99.90
5461;DHT22;2753;49.196;8.286;2022-12-18T07:43:08;-7.40;99.90
5461;DHT22;2753;49.196;8.286;2022-12-18T07:45:34;-7.40;99.90
5461;DHT22;2753;49.196;8.286;2022-12-18T07:48:00;-7.50;99.90
5461;DHT22;2753;49.196;8.286;2022-12-18T07:50:25;-7.50;99.90
5461;DHT22;2753;49.196;8.286;2022-12-18T07:52:51;-7.50;99.90
5461;DHT22;2753;49.196;8.286;2022-12-18T07:55:17;-7.50;99.90
5461;DHT22;2753;49.196;8.286;2022-12-18T07:57:42;-7.50;99.90
5461;DHT22;2753;49.196;8.286;2022-12-18T08:00:09;-7.50;99.90
5461;DHT22;2753;49.196;8.286;2022-12-18T08:02:34;-7.40;99.90
5461;DHT22;2753;49.196;8.286;2022-12-18T08:05:00;-7.40;99.90
5461;DHT22;2753;49.196;8.286;2022-12-18T08:07:26;-7.40;99.90
5461;DHT22;2753;49.196;8.286;2022-12-18T08:09:52;-7.40;99.90
5461;DHT22;2753;49.196;8.286;2022-12-18T08:12:17;-7.30;99.90
5461;DHT22;2753;49.196;8.286;2022-12-18T08:14:43;-7.30;99.90
5461;DHT22;2753;49.196;8.286;2022-12-18T08:17:09;-7.30;99.90
5461;DHT22;2753;49.196;8.286;2022-12-18T08:19:34;-7.30;99.90
5461;DHT22;2753;49.196;8.286;2022-12-18T08:22:00;-7.30;99.90
5461;DHT22;2753;49.196;8.286;2022-12-18T08:24:26;-7.30;99.90
5461;DHT22;2753;49.196;8.286;2022-12-18T08:26:51;-7.20;99.90
5461;DHT22;2753;49.196;8.286;2022-12-18T08:29:17;-7.20;99.90
5461;DHT22;2753;49.196;8.286;2022-12-18T08:31:43;-7.20;99.90
5461;DHT22;2753;49.196;8.286;2022-12-18T08:34:09;-7.20;99.90
5461;DHT22;2753;49.196;8.286;2022-12-18T08:36:34;-7.20;99.90
5461;DHT22;2753;49.196;8.286;2022-12-18T08:39:00;-7.10;99.90
5461;DHT22;2753;49.196;8.286;2022-12-18T08:41:26;-7.10;99.90
5461;DHT22;2753;49.196;8.286;2022-12-18T08:43:52;-7.10;99.90
5461;DHT22;2753;49.196;8.286;2022-12-18T08:46:41;-7.10;99.90
5461;DHT22;2753;49.196;8.286;2022-12-18T08:49:08;-7.00;99.90
5461;DHT22;2753;49.196;8.286;2022-12-18T08:51:34;-7.00;99.90
5461;DHT22;2753;49.196;8.286;2022-12-18T08:54:02;-7.00;99.90
5461;DHT22;2753;49.196;8.286;2022-12-18T08:56:28;-7.00;99.90
5461;DHT22;2753;49.196;8.286;2022-12-18T08:58:55;-6.90;99.90
5461;DHT22;2753;49.196;8.286;2022-12-18T09:01:21;-6.90;99.90
5461;DHT22;2753;49.196;8.286;2022-12-18T09:03:48;-6.90;99.90
5461;DHT22;2753;49.196;8.286;2022-12-18T09:06:15;-6.80;99.90
5461;DHT22;2753;49.196;8.286;2022-12-18T09:08:42;-6.80;99.90
5461;DHT22;2753;49.196;8.286;2022-12-18T09:11:14;-6.70;99.90
5461;DHT22;2753;49.196;8.286;2022-12-18T09:13:40;-6.60;99.90
5461;DHT22;2753;49.196;8.286;2022-12-18T09:16:06;-6.60;99.90
5461;DHT22;2753;49.196;8.286;2022-12-18T09:18:31;-6.50;99.90
5461;DHT22;2753;49.196;8.286;2022-12-18T09:20:57;-6.50;99.90
5461;DHT22;2753;49.196;8.286;2022-12-18T09:23:23;-6.40;99.90
5461;DHT22;2753;49.196;8.286;2022-12-18T09:25:49;-6.40;99.90
5461;DHT22;2753;49.196;8.286;2022-12-18T09:28:16;-6.30;99.90
5461;DHT22;2753;49.196;8.286;2022-12-18T09:30:47;-6.20;99.90
5461;DHT22;2753;49.196;8.286;2022-12-18T09:33:14;-6.20;99.90
5461;DHT22;2753;49.196;8.286;2022-12-18T09:35:41;-6.10;99.90
5461;DHT22;2753;49.196;8.286;2022-12-18T09:38:13;-6.00;99.90
5461;DHT22;2753;49.196;8.286;2022-12-18T09:40:45;-6.00;99.90
5461;DHT22;2753;49.196;8.286;2022-12-18T09:43:28;-5.90;99.90
5461;DHT22;2753;49.196;8.286;2022-12-18T09:45:59;-5.80;99.90
5461;DHT22;2753;49.196;8.286;2022-12-18T09:48:30;-5.80;99.90
5461;DHT22;2753;49.196;8.286;2022-12-18T09:51:02;-5.80;99.90
5461;DHT22;2753;49.196;8.286;2022-12-18T09:53:33;-5.60;99.90
5461;DHT22;2753;49.196;8.286;2022-12-18T09:56:01;-5.60;99.90
5461;DHT22;2753;49.196;8.286;2022-12-18T09:58:39;-5.50;99.90
5461;DHT22;2753;49.196;8.286;2022-12-18T10:01:11;-5.50;99.90
5461;DHT22;2753;49.196;8.286;2022-12-18T10:03:37;-5.40;99.90
5461;DHT22;2753;49.196;8.286;2022-12-18T10:06:16;-5.40;99.90
5461;DHT22;2753;49.196;8.286;2022-12-18T10:08:49;-5.30;99.90
5461;DHT22;2753;49.196;8.286;2022-12-18T10:14:20;-5.20;99.90
5461;DHT22;2753;49.196;8.286;2022-12-18T10:19:59;-5.00;99.90
5461;DHT22;2753;49.196;8.286;2022-12-18T10:22:36;-5.00;99.90
5461;DHT22;2753;49.196;8.286;2022-12-18T10:25:06;-5.00;99.90
5461;DHT22;2753;49.196;8.286;2022-12-18T10:27:39;-5.00;99.90
5461;DHT22;2753;49.196;8.286;2022-12-18T10:30:16;-4.90;99.90
5461;DHT22;2753;49.196;8.286;2022-12-18T10:32:42;-4.90;99.90
5461;DHT22;2753;49.196;8.286;2022-12-18T10:35:19;-4.90;99.90
5461;DHT22;2753;49.196;8.286;2022-12-18T10:38:19;-4.80;99.90
5461;DHT22;2753;49.196;8.286;2022-12-18T10:40:57;-4.80;99.90
5461;DHT22;2753;49.196;8.286;2022-12-18T10:43:34;-4.80;99.90
5461;DHT22;2753;49.196;8.286;2022-12-18T10:46:02;-4.70;99.90
5461;DHT22;2753;49.196;8.286;2022-12-18T10:48:28;-4.60;99.90
5461;DHT22;2753;49.196;8.286;2022-12-18T10:50:55;-4.50;99.90
5461;DHT22;2753;49.196;8.286;2022-12-18T10:53:24;-4.50;99.90
5461;DHT22;2753;49.196;8.286;2022-12-18T10:55:53;-4.50;99.90
5461;DHT22;2753;49.196;8.286;2022-12-18T11:03:38;-4.30;99.90
5461;DHT22;2753;49.196;8.286;2022-12-18T11:06:11;-4.30;99.90
5461;DHT22;2753;49.196;8.286;2022-12-18T11:08:37;-4.20;99.90
5461;DHT22;2753;49.196;8.286;2022-12-18T11:11:04;-4.20;99.90
5461;DHT22;2753;49.196;8.286;2022-12-18T11:13:32;-4.20;99.90
5461;DHT22;2753;49.196;8.286;2022-12-18T11:15:58;-4.20;99.90
5461;DHT22;2753;49.196;8.286;2022-12-18T11:18:33;-4.20;99.90
5461;DHT22;2753;49.196;8.286;2022-12-18T11:21:07;-4.10;99.90
5461;DHT22;2753;49.196;8.286;2022-12-18T11:23:34;-4.10;99.90
5461;DHT22;2753;49.196;8.286;2022-12-18T11:26:02;-4.10;99.90
5461;DHT22;2753;49.196;8.286;2022-12-18T11:34:07;-4.10;99.90
5461;DHT22;2753;49.196;8.286;2022-12-18T11:36:49;-4.00;99.90
5461;DHT22;2753;49.196;8.286;2022-12-18T11:39:18;-4.00;99.90
5461;DHT22;2753;49.196;8.286;2022-12-18T11:42:08;-3.90;99.90
5461;DHT22;2753;49.196;8.286;2022-12-18T11:44:55;-3.90;99.90
5461;DHT22;2753;49.196;8.286;2022-12-18T11:50:33;-3.90;99.90
5461;DHT22;2753;49.196;8.286;2022-12-18T11:53:03;-3.90;99.90
5461;DHT22;2753;49.196;8.286;2022-12-18T11:58:40;-3.90;99.90
5461;DHT22;2753;49.196;8.286;2022-12-18T12:01:38;-3.90;99.90
5461;DHT22;2753;49.196;8.286;2022-12-18T12:04:31;-3.90;99.90
5461;DHT22;2753;49.196;8.286;2022-12-18T12:26:13;-3.70;99.90
5461;DHT22;2753;49.196;8.286;2022-12-18T12:29:07;-3.70;99.90
5461;DHT22;2753;49.196;8.286;2022-12-18T12:39:38;-3.60;99.90
5461;DHT22;2753;49.196;8.286;2022-12-18T12:42:13;-3.50;99.90
5461;DHT22;2753;49.196;8.286;2022-12-18T12:45:01;-3.50;99.90
5461;DHT22;2753;49.196;8.286;2022-12-18T12:47:38;-3.40;99.90
5461;DHT22;2753;49.196;8.286;2022-12-18T12:50:13;-3.40;99.90
5461;DHT22;2753;49.196;8.286;2022-12-18T12:52:51;-3.90;99.90
5461;DHT22;2753;49.196;8.286;2022-12-18T12:55:28;-3.30;99.90
5461;DHT22;2753;49.196;8.286;2022-12-18T13:00:31;-3.40;99.90
5461;DHT22;2753;49.196;8.286;2022-12-18T13:10:53;-3.40;99.90
5461;DHT22;2753;49.196;8.286;2022-12-18T13:13:54;-3.40;99.90
5461;DHT22;2753;49.196;8.286;2022-12-18T13:16:22;-3.40;99.90
5461;DHT22;2753;49.196;8.286;2022-12-18T13:18:56;-3.40;99.90
5461;DHT22;2753;49.196;8.286;2022-12-18T13:21:32;-3.50;99.90
5461;DHT22;2753;49.196;8.286;2022-12-18T13:24:15;-3.50;99.90
5461;DHT22;2753;49.196;8.286;2022-12-18T13:26:48;-3.50;99.90
5461;DHT22;2753;49.196;8.286;2022-12-18T13:29:40;-3.50;99.90
5461;DHT22;2753;49.196;8.286;2022-12-18T13:32:20;-3.50;99.90
5461;DHT22;2753;49.196;8.286;2022-12-18T13:34:46;-3.50;99.90
5461;DHT22;2753;49.196;8.286;2022-12-18T13:37:42;-3.50;99.90
5461;DHT22;2753;49.196;8.286;2022-12-18T13:48:26;-3.50;99.90
5461;DHT22;2753;49.196;8.286;2022-12-18T13:50:56;-3.50;99.90
5461;DHT22;2753;49.196;8.286;2022-12-18T13:53:27;-3.50;99.90
5461;DHT22;2753;49.196;8.286;2022-12-18T13:55:53;-3.50;99.90
5461;DHT22;2753;49.196;8.286;2022-12-18T13:58:19;-3.50;99.90
5461;DHT22;2753;49.196;8.286;2022-12-18T14:00:45;-3.60;99.90
5461;DHT22;2753;49.196;8.286;2022-12-18T14:03:26;-3.50;99.90
5461;DHT22;2753;49.196;8.286;2022-12-18T14:06:02;-3.50;99.90
5461;DHT22;2753;49.196;8.286;2022-12-18T14:08:37;-3.60;99.90
5461;DHT22;2753;49.196;8.286;2022-12-18T14:11:04;-3.60;99.90
5461;DHT22;2753;49.196;8.286;2022-12-18T14:13:35;-3.60;99.90
5461;DHT22;2753;49.196;8.286;2022-12-18T14:16:04;-3.60;99.90
5461;DHT22;2753;49.196;8.286;2022-12-18T14:21:30;-3.70;99.90
5461;DHT22;2753;49.196;8.286;2022-12-18T14:24:15;-3.70;99.90
5461;DHT22;2753;49.196;8.286;2022-12-18T14:26:41;-3.70;99.90
5461;DHT22;2753;49.196;8.286;2022-12-18T14:29:26;-3.70;99.90
5461;DHT22;2753;49.196;8.286;2022-12-18T14:32:13;-3.70;99.90
5461;DHT22;2753;49.196;8.286;2022-12-18T14:34:41;-3.70;99.90
5461;DHT22;2753;49.196;8.286;2022-12-18T14:37:10;-3.80;99.90
5461;DHT22;2753;49.196;8.286;2022-12-18T14:39:37;-3.70;99.90
5461;DHT22;2753;49.196;8.286;2022-12-18T14:42:03;-3.70;99.90
5461;DHT22;2753;49.196;8.286;2022-12-18T14:44:29;-3.70;99.90
5461;DHT22;2753;49.196;8.286;2022-12-18T14:46:55;-3.70;99.90
5461;DHT22;2753;49.196;8.286;2022-12-18T14:49:32;-3.80;99.90
5461;DHT22;2753;49.196;8.286;2022-12-18T14:52:04;-3.80;99.90
5461;DHT22;2753;49.196;8.286;2022-12-18T14:54:31;-3.80;99.90
5461;DHT22;2753;49.196;8.286;2022-12-18T14:56:59;-3.80;99.90
5461;DHT22;2753;49.196;8.286;2022-12-18T14:59:27;-3.80;99.90
5461;DHT22;2753;49.196;8.286;2022-12-18T15:04:39;-3.90;99.90
5461;DHT22;2753;49.196;8.286;2022-12-18T15:09:42;-3.90;99.90
5461;DHT22;2753;49.196;8.286;2022-12-18T15:12:26;-3.90;99.90
5461;DHT22;2753;49.196;8.286;2022-12-18T15:14:53;-4.00;99.90
5461;DHT22;2753;49.196;8.286;2022-12-18T15:17:21;-4.00;99.90
5461;DHT22;2753;49.196;8.286;2022-12-18T15:19:49;-4.00;99.90
5461;DHT22;2753;49.196;8.286;2022-12-18T15:22:20;-4.00;99.90
5461;DHT22;2753;49.196;8.286;2022-12-18T15:24:47;-4.00;99.90
5461;DHT22;2753;49.196;8.286;2022-12-18T15:27:31;-4.00;99.90
5461;DHT22;2753;49.196;8.286;2022-12-18T15:30:22;-4.10;99.90
5461;DHT22;2753;49.196;8.286;2022-12-18T15:32:48;-4.10;99.90
5461;DHT22;2753;49.196;8.286;2022-12-18T15:35:23;-4.10;99.90
5461;DHT22;2753;49.196;8.286;2022-12-18T15:37:50;-4.10;99.90
5461;DHT22;2753;49.196;8.286;2022-12-18T15:40:19;-4.10;99.90
5461;DHT22;2753;49.196;8.286;2022-12-18T15:42:46;-4.10;99.90
5461;DHT22;2753;49.196;8.286;2022-12-18T15:45:31;-4.10;99.90
5461;DHT22;2753;49.196;8.286;2022-12-18T15:47:57;-4.10;99.90
5461;DHT22;2753;49.196;8.286;2022-12-18T15:50:23;-4.20;99.90
5461;DHT22;2753;49.196;8.286;2022-12-18T15:52:51;-4.20;99.90
5461;DHT22;2753;49.196;8.286;2022-12-18T15:55:19;-4.20;99.90
5461;DHT22;2753;49.196;8.286;2022-12-18T15:58:08;-4.20;99.90
5461;DHT22;2753;49.196;8.286;2022-12-18T16:00:36;-4.20;99.90
5461;DHT22;2753;49.196;8.286;2022-12-18T16:03:03;-4.20;99.90
5461;DHT22;2753;49.196;8.286;2022-12-18T16:05:30;-4.20;99.90
5461;DHT22;2753;49.196;8.286;2022-12-18T16:07:56;-4.20;99.90
5461;DHT22;2753;49.196;8.286;2022-12-18T16:10:22;-4.20;99.90
5461;DHT22;2753;49.196;8.286;2022-12-18T16:12:49;-4.20;99.90
5461;DHT22;2753;49.196;8.286;2022-12-18T16:15:15;-4.20;99.90
5461;DHT22;2753;49.196;8.286;2022-12-18T16:17:45;-4.30;99.90
5461;DHT22;2753;49.196;8.286;2022-12-18T16:20:16;-4.30;99.90
5461;DHT22;2753;49.196;8.286;2022-12-18T16:22:43;-4.20;99.90
5461;DHT22;2753;49.196;8.286;2022-12-18T16:25:26;-4.20;99.90
5461;DHT22;2753;49.196;8.286;2022-12-18T16:27:53;-4.20;99.90
5461;DHT22;2753;49.196;8.286;2022-12-18T16:30:23;-4.20;99.90
5461;DHT22;2753;49.196;8.286;2022-12-18T16:32:49;-4.20;99.90
5461;DHT22;2753;49.196;8.286;2022-12-18T16:35:16;-4.20;99.90
5461;DHT22;2753;49.196;8.286;2022-12-18T16:37:42;-4.20;99.90
5461;DHT22;2753;49.196;8.286;2022-12-18T16:40:10;-4.20;99.90
5461;DHT22;2753;49.196;8.286;2022-12-18T16:42:38;-4.20;99.90
5461;DHT22;2753;49.196;8.286;2022-12-18T16:45:06;-4.20;99.90
5461;DHT22;2753;49.196;8.286;2022-12-18T16:47:33;-4.20;99.90
5461;DHT22;2753;49.196;8.286;2022-12-18T16:49:59;-4.20;99.90
5461;DHT22;2753;49.196;8.286;2022-12-18T16:52:25;-4.30;99.90
5461;DHT22;2753;49.196;8.286;2022-12-18T16:54:51;-4.20;99.90
5461;DHT22;2753;49.196;8.286;2022-12-18T16:57:18;-4.20;99.90
5461;DHT22;2753;49.196;8.286;2022-12-18T16:59:44;-4.20;99.90
5461;DHT22;2753;49.196;8.286;2022-12-18T17:02:21;-4.20;99.90
5461;DHT22;2753;49.196;8.286;2022-12-18T17:04:47;-4.20;99.90
5461;DHT22;2753;49.196;8.286;2022-12-18T17:07:13;-4.20;99.90
5461;DHT22;2753;49.196;8.286;2022-12-18T17:09:40;-4.20;99.90
5461;DHT22;2753;49.196;8.286;2022-12-18T17:12:06;-4.20;99.90
5461;DHT22;2753;49.196;8.286;2022-12-18T17:14:33;-4.20;99.90
5461;DHT22;2753;49.196;8.286;2022-12-18T17:16:59;-4.20;99.90
5461;DHT22;2753;49.196;8.286;2022-12-18T17:19:25;-4.20;99.90
5461;DHT22;2753;49.196;8.286;2022-12-18T17:21:52;-4.20;99.90
5461;DHT22;2753;49.196;8.286;2022-12-18T17:24:19;-4.20;99.90
5461;DHT22;2753;49.196;8.286;2022-12-18T17:26:45;-4.20;99.90
5461;DHT22;2753;49.196;8.286;2022-12-18T17:29:16;-4.20;99.90
5461;DHT22;2753;49.196;8.286;2022-12-18T17:31:42;-4.20;99.90
5461;DHT22;2753;49.196;8.286;2022-12-18T17:34:10;-4.20;99.90
5461;DHT22;2753;49.196;8.286;2022-12-18T17:36:36;-4.20;99.90
5461;DHT22;2753;49.196;8.286;2022-12-18T17:39:04;-4.20;99.90
5461;DHT22;2753;49.196;8.286;2022-12-18T17:41:31;-4.20;99.90
5461;DHT22;2753;49.196;8.286;2022-12-18T17:43:58;-4.20;99.90
5461;DHT22;2753;49.196;8.286;2022-12-18T17:46:25;-4.20;99.90
5461;DHT22;2753;49.196;8.286;2022-12-18T17:48:54;-4.20;99.90
5461;DHT22;2753;49.196;8.286;2022-12-18T17:51:20;-4.20;99.90
5461;DHT22;2753;49.196;8.286;2022-12-18T17:53:46;-4.20;99.90
5461;DHT22;2753;49.196;8.286;2022-12-18T17:56:13;-4.20;99.90
5461;DHT22;2753;49.196;8.286;2022-12-18T17:58:40;-4.20;99.90
5461;DHT22;2753;49.196;8.286;2022-12-18T18:01:06;-4.20;99.90
5461;DHT22;2753;49.196;8.286;2022-12-18T18:03:32;-4.20;99.90
5461;DHT22;2753;49.196;8.286;2022-12-18T18:06:00;-4.20;99.90
5461;DHT22;2753;49.196;8.286;2022-12-18T18:08:27;-4.20;99.90
5461;DHT22;2753;49.196;8.286;2022-12-18T18:10:54;-4.20;99.90
5461;DHT22;2753;49.196;8.286;2022-12-18T18:17:02;-4.20;99.90
5461;DHT22;2753;49.196;8.286;2022-12-18T18:19:28;-4.20;99.90
5461;DHT22;2753;49.196;8.286;2022-12-18T18:21:53;-4.20;99.90
5461;DHT22;2753;49.196;8.286;2022-12-18T18:24:21;-4.20;99.90
5461;DHT22;2753;49.196;8.286;2022-12-18T18:26:50;-4.20;99.90
5461;DHT22;2753;49.196;8.286;2022-12-18T18:29:21;-4.20;99.90
5461;DHT22;2753;49.196;8.286;2022-12-18T18:31:47;-4.20;99.90
5461;DHT22;2753;49.196;8.286;2022-12-18T18:34:17;-4.20;99.90
5461;DHT22;2753;49.196;8.286;2022-12-18T18:36:44;-4.20;99.90
5461;DHT22;2753;49.196;8.286;2022-12-18T18:39:13;-4.20;99.90
5461;DHT22;2753;49.196;8.286;2022-12-18T18:41:39;-4.20;99.90
5461;DHT22;2753;49.196;8.286;2022-12-18T18:44:05;-4.20;99.90
5461;DHT22;2753;49.196;8.286;2022-12-18T18:46:31;-4.10;99.90